createdAt,value
2018-06-25T00:00:45.937Z,14.9
2018-06-25T00:01:46.623Z,14.8
2018-06-25T00:02:47.280Z,14.8
2018-06-25T00:03:47.935Z,14.8
2018-06-25T00:04:48.593Z,14.8
2018-06-25T00:05:49.249Z,14.8
2018-06-25T00:06:49.905Z,14.8
2018-06-25T00:07:50.561Z,14.7
2018-06-25T00:08:51.218Z,14.8
2018-06-25T00:09:51.875Z,14.7
2018-06-25T00:10:52.532Z,14.7
2018-06-25T00:11:53.188Z,14.8
2018-06-25T00:12:53.853Z,14.7
2018-06-25T00:13:54.510Z,14.8
2018-06-25T00:14:55.165Z,14.8
2018-06-25T00:15:55.824Z,14.8
2018-06-25T00:16:56.478Z,14.8
2018-06-25T00:17:57.134Z,14.7
2018-06-25T00:18:57.793Z,14.8
2018-06-25T00:19:58.449Z,14.7
2018-06-25T00:20:59.107Z,14.7
2018-06-25T00:21:59.763Z,14.7
2018-06-25T00:23:00.422Z,14.8
2018-06-25T00:24:01.079Z,14.8
2018-06-25T00:25:01.736Z,14.8
2018-06-25T00:26:02.394Z,14.7
2018-06-25T00:27:03.051Z,14.7
2018-06-25T00:28:03.747Z,14.7
2018-06-25T00:29:04.402Z,14.7
2018-06-25T00:30:05.059Z,14.7
2018-06-25T00:31:05.765Z,14.6
2018-06-25T00:32:06.423Z,14.7
2018-06-25T00:33:07.078Z,14.7
2018-06-25T00:34:07.735Z,14.7
2018-06-25T00:35:08.393Z,14.7
2018-06-25T00:36:09.049Z,14.6
2018-06-25T00:37:09.709Z,14.7
2018-06-25T00:38:10.366Z,14.6
2018-06-25T00:39:11.021Z,14.6
2018-06-25T00:40:11.679Z,14.6
2018-06-25T00:41:12.374Z,14.6
2018-06-25T00:42:13.032Z,14.5
2018-06-25T00:43:13.688Z,14.6
2018-06-25T00:44:14.346Z,14.6
2018-06-25T00:45:15.005Z,14.6
2018-06-25T00:46:15.664Z,14.6
2018-06-25T00:47:16.371Z,14.5
2018-06-25T00:48:16.980Z,14.5
2018-06-25T00:49:17.640Z,14.5
2018-06-25T00:50:18.296Z,14.5
2018-06-25T00:51:18.955Z,14.5
2018-06-25T00:52:19.613Z,14.5
2018-06-25T00:53:20.269Z,14.5
2018-06-25T00:54:20.927Z,14.4
2018-06-25T00:55:21.586Z,14.4
2018-06-25T00:56:22.243Z,14.4
2018-06-25T00:57:22.901Z,14.5
2018-06-25T00:58:23.564Z,14.4
2018-06-25T00:59:24.253Z,14.4
2018-06-25T01:00:24.913Z,14.5
2018-06-25T01:01:25.572Z,14.5
2018-06-25T01:02:26.267Z,14.4
2018-06-25T01:03:26.924Z,14.4
2018-06-25T01:04:27.583Z,14.5
2018-06-25T01:05:28.249Z,14.5
2018-06-25T01:06:28.937Z,14.5
2018-06-25T01:07:29.595Z,14.5
2018-06-25T01:08:30.252Z,14.5
2018-06-25T01:09:30.916Z,14.4
2018-06-25T01:10:31.607Z,14.5
2018-06-25T01:11:32.265Z,14.4
2018-06-25T01:12:32.923Z,14.5
2018-06-25T01:13:33.580Z,14.5
2018-06-25T01:14:34.240Z,14.5
2018-06-25T01:15:34.934Z,14.5
2018-06-25T01:16:35.593Z,14.5
2018-06-25T01:17:36.250Z,14.5
2018-06-25T01:18:36.912Z,14.5
2018-06-25T01:19:37.604Z,14.6
2018-06-25T01:20:38.264Z,14.4
2018-06-25T01:21:38.969Z,14.4
2018-06-25T01:22:39.628Z,14.5
2018-06-25T01:23:40.286Z,14.5
2018-06-25T01:24:40.942Z,14.5
2018-06-25T01:25:41.604Z,14.4
2018-06-25T01:26:42.309Z,14.5
2018-06-25T01:27:42.967Z,14.5
2018-06-25T01:28:43.628Z,14.5
2018-06-25T01:29:44.320Z,14.4
2018-06-25T01:30:45.016Z,14.5
2018-06-25T01:31:45.672Z,14.5
2018-06-25T01:32:46.331Z,14.5
2018-06-25T01:33:46.989Z,14.5
2018-06-25T01:34:47.645Z,14.5
2018-06-25T01:35:48.302Z,14.6
2018-06-25T01:36:49.001Z,14.5
2018-06-25T01:37:49.656Z,14.6
2018-06-25T01:38:50.315Z,14.6
2018-06-25T01:39:51.008Z,14.5
2018-06-25T01:40:51.665Z,14.4
2018-06-25T01:41:52.328Z,14.5
2018-06-25T01:42:53.021Z,14.6
2018-06-25T01:43:53.677Z,14.5
2018-06-25T01:44:54.336Z,14.6
2018-06-25T01:45:54.993Z,14.5
2018-06-25T01:46:55.652Z,14.6
2018-06-25T01:47:56.310Z,14.6
2018-06-25T01:48:56.967Z,14.6
2018-06-25T01:49:57.628Z,14.6
2018-06-25T01:50:58.282Z,14.6
2018-06-25T01:51:58.941Z,14.6
2018-06-25T01:52:59.603Z,14.6
2018-06-25T01:54:00.260Z,14.6
2018-06-25T01:55:00.917Z,14.6
2018-06-25T01:56:01.575Z,14.6
2018-06-25T01:57:02.313Z,14.6
2018-06-25T01:58:02.919Z,14.6
2018-06-25T01:59:03.577Z,14.6
2018-06-25T02:00:04.236Z,14.6
2018-06-25T02:01:04.895Z,14.7
2018-06-25T02:02:05.551Z,14.7
2018-06-25T02:03:06.210Z,14.7
2018-06-25T02:04:06.866Z,14.6
2018-06-25T02:05:07.525Z,14.6
2018-06-25T02:06:08.185Z,14.6
2018-06-25T02:07:08.879Z,14.6
2018-06-25T02:08:09.536Z,14.6
2018-06-25T02:09:10.197Z,14.7
2018-06-25T02:10:10.895Z,14.7
2018-06-25T02:11:11.550Z,14.7
2018-06-25T02:12:12.206Z,14.6
2018-06-25T02:13:12.861Z,14.7
2018-06-25T02:14:13.521Z,14.7
2018-06-25T02:15:14.180Z,14.7
2018-06-25T02:16:14.836Z,14.7
2018-06-25T02:17:15.544Z,14.7
2018-06-25T02:18:16.201Z,14.7
2018-06-25T02:19:16.858Z,14.7
2018-06-25T02:20:17.519Z,14.7
2018-06-25T02:21:18.218Z,14.7
2018-06-25T02:22:18.870Z,14.7
2018-06-25T02:23:19.526Z,14.7
2018-06-25T02:24:20.184Z,14.6
2018-06-25T02:25:20.841Z,14.7
2018-06-25T02:26:21.499Z,14.6
2018-06-25T02:27:22.190Z,14.6
2018-06-25T02:28:22.849Z,14.5
2018-06-25T02:29:23.505Z,14.5
2018-06-25T02:30:24.162Z,14.4
2018-06-25T02:31:24.818Z,14.5
2018-06-25T02:32:25.475Z,14.5
2018-06-25T02:33:26.132Z,14.5
2018-06-25T02:34:26.801Z,14.5
2018-06-25T02:35:27.487Z,14.4
2018-06-25T02:36:28.142Z,14.5
2018-06-25T02:37:28.799Z,14.6
2018-06-25T02:38:29.458Z,14.6
2018-06-25T02:39:30.113Z,14.7
2018-06-25T02:40:30.771Z,14.6
2018-06-25T02:41:31.430Z,14.7
2018-06-25T02:42:32.087Z,14.7
2018-06-25T02:43:32.745Z,14.7
2018-06-25T02:44:33.402Z,14.7
2018-06-25T02:45:34.059Z,14.7
2018-06-25T02:46:34.719Z,14.7
2018-06-25T02:47:35.376Z,14.7
2018-06-25T02:48:36.033Z,14.8
2018-06-25T02:49:36.728Z,14.7
2018-06-25T02:50:37.387Z,14.8
2018-06-25T02:51:38.045Z,14.7
2018-06-25T02:52:38.703Z,14.7
2018-06-25T02:53:39.366Z,14.7
2018-06-25T02:54:40.022Z,14.8
2018-06-25T02:55:40.680Z,14.8
2018-06-25T02:56:41.340Z,14.8
2018-06-25T02:57:41.998Z,14.8
2018-06-25T02:58:42.656Z,14.8
2018-06-25T02:59:43.314Z,14.7
2018-06-25T03:00:44.011Z,14.7
2018-06-25T03:01:44.670Z,14.6
2018-06-25T03:02:45.326Z,14.7
2018-06-25T03:03:45.985Z,14.6
2018-06-25T03:04:46.641Z,14.6
2018-06-25T03:05:47.300Z,14.7
2018-06-25T03:06:47.960Z,14.7
2018-06-25T03:07:48.653Z,14.6
2018-06-25T03:08:49.312Z,14.6
2018-06-25T03:09:49.971Z,14.6
2018-06-25T03:10:50.667Z,14.5
2018-06-25T03:11:51.327Z,14.5
2018-06-25T03:12:51.985Z,14.5
2018-06-25T03:13:52.645Z,14.5
2018-06-25T03:14:53.303Z,14.5
2018-06-25T03:15:53.964Z,14.5
2018-06-25T03:16:54.662Z,14.5
2018-06-25T03:17:55.321Z,14.4
2018-06-25T03:18:55.982Z,14.5
2018-06-25T03:19:56.641Z,14.5
2018-06-25T03:20:57.300Z,14.5
2018-06-25T03:21:57.961Z,14.4
2018-06-25T03:22:58.621Z,14.5
2018-06-25T03:23:59.283Z,14.5
2018-06-25T03:24:59.981Z,14.5
2018-06-25T03:26:00.640Z,14.6
2018-06-25T03:27:01.299Z,14.6
2018-06-25T03:28:01.961Z,14.6
2018-06-25T03:29:02.657Z,14.5
2018-06-25T03:30:03.315Z,14.6
2018-06-25T03:31:03.978Z,14.4
2018-06-25T03:32:04.637Z,14.4
2018-06-25T03:33:05.348Z,14.6
2018-06-25T03:34:06.009Z,14.6
2018-06-25T03:35:06.672Z,14.6
2018-06-25T03:36:07.334Z,14.6
2018-06-25T03:37:07.994Z,14.5
2018-06-25T03:38:08.655Z,14.7
2018-06-25T03:39:09.316Z,14.8
2018-06-25T03:40:09.976Z,14.7
2018-06-25T03:41:10.637Z,14.7
2018-06-25T03:42:11.302Z,14.7
2018-06-25T03:43:12.007Z,14.7
2018-06-25T03:44:12.655Z,14.7
2018-06-25T03:45:13.315Z,14.7
2018-06-25T03:46:13.974Z,14.8
2018-06-25T03:47:14.633Z,14.8
2018-06-25T03:48:15.344Z,14.9
2018-06-25T03:49:16.005Z,14.8
2018-06-25T03:50:16.666Z,14.9
2018-06-25T03:51:17.326Z,14.9
2018-06-25T03:52:17.986Z,14.9
2018-06-25T03:53:18.648Z,14.9
2018-06-25T03:54:19.307Z,14.9
2018-06-25T03:55:19.965Z,15.0
2018-06-25T03:56:20.626Z,15.0
2018-06-25T03:57:21.287Z,15.0
2018-06-25T03:58:21.946Z,15.0
2018-06-25T03:59:22.643Z,15.1
2018-06-25T04:00:23.303Z,15.0
2018-06-25T04:01:23.963Z,15.1
2018-06-25T04:02:24.626Z,15.1
2018-06-25T04:03:25.287Z,15.1
2018-06-25T04:04:25.948Z,15.1
2018-06-25T04:05:26.609Z,15.1
2018-06-25T04:06:27.269Z,15.1
2018-06-25T04:07:27.929Z,15.1
2018-06-25T04:08:28.594Z,15.1
2018-06-25T04:09:29.252Z,15.1
2018-06-25T04:10:29.917Z,15.1
2018-06-25T04:11:30.612Z,15.1
2018-06-25T04:12:31.309Z,15.2
2018-06-25T04:13:31.969Z,15.1
2018-06-25T04:14:32.629Z,15.2
2018-06-25T04:15:33.291Z,15.2
2018-06-25T04:16:33.950Z,15.2
2018-06-25T04:17:34.610Z,15.1
2018-06-25T04:18:35.271Z,15.0
2018-06-25T04:19:35.931Z,15.1
2018-06-25T04:20:36.627Z,15.2
2018-06-25T04:21:37.254Z,15.1
2018-06-25T04:22:37.917Z,15.2
2018-06-25T04:23:38.625Z,15.2
2018-06-25T04:24:39.239Z,15.3
2018-06-25T04:25:39.899Z,15.2
2018-06-25T04:26:40.560Z,15.4
2018-06-25T04:27:41.223Z,15.3
2018-06-25T04:28:41.883Z,15.3
2018-06-25T04:29:42.545Z,15.4
2018-06-25T04:30:43.257Z,15.5
2018-06-25T04:31:43.869Z,15.5
2018-06-25T04:32:44.530Z,15.6
2018-06-25T04:33:45.190Z,15.6
2018-06-25T04:34:45.852Z,15.6
2018-06-25T04:35:46.515Z,15.6
2018-06-25T04:36:47.176Z,15.6
2018-06-25T04:37:47.841Z,15.6
2018-06-25T04:38:48.501Z,15.6
2018-06-25T04:39:49.162Z,15.7
2018-06-25T04:40:49.824Z,15.7
2018-06-25T04:41:50.485Z,15.8
2018-06-25T04:42:51.148Z,15.7
2018-06-25T04:43:51.810Z,15.8
2018-06-25T04:44:52.472Z,15.7
2018-06-25T04:45:53.135Z,15.8
2018-06-25T04:46:53.807Z,15.9
2018-06-25T04:47:54.501Z,15.9
2018-06-25T04:48:55.164Z,15.8
2018-06-25T04:49:55.827Z,16.0
2018-06-25T04:50:56.493Z,15.9
2018-06-25T04:51:57.154Z,16.0
2018-06-25T04:52:57.821Z,16.0
2018-06-25T04:53:58.480Z,16.1
2018-06-25T04:54:59.143Z,16.1
2018-06-25T04:55:59.808Z,16.2
2018-06-25T04:57:00.472Z,16.2
2018-06-25T04:58:01.138Z,16.2
2018-06-25T04:59:01.803Z,16.2
2018-06-25T05:00:02.465Z,16.3
2018-06-25T05:01:03.138Z,16.3
2018-06-25T05:02:03.790Z,16.3
2018-06-25T05:03:04.454Z,16.3
2018-06-25T05:04:05.117Z,16.4
2018-06-25T05:05:05.780Z,16.5
2018-06-25T05:06:06.444Z,16.3
2018-06-25T05:07:07.145Z,16.3
2018-06-25T05:08:07.809Z,16.3
2018-06-25T05:09:08.470Z,16.3
2018-06-25T05:10:09.134Z,16.4
2018-06-25T05:11:09.797Z,16.5
2018-06-25T05:12:10.460Z,16.6
2018-06-25T05:13:11.122Z,16.7
2018-06-25T05:14:11.785Z,16.6
2018-06-25T05:15:12.450Z,16.6
2018-06-25T05:16:13.115Z,16.7
2018-06-25T05:17:13.780Z,16.6
2018-06-25T05:18:14.443Z,16.7
2018-06-25T05:19:15.106Z,16.7
2018-06-25T05:20:15.769Z,16.7
2018-06-25T05:21:16.433Z,16.5
2018-06-25T05:22:17.096Z,16.5
2018-06-25T05:23:17.760Z,16.5
2018-06-25T05:24:18.423Z,16.4
2018-06-25T05:25:19.086Z,16.5
2018-06-25T05:26:19.751Z,16.5
2018-06-25T05:27:20.418Z,16.5
2018-06-25T05:28:21.119Z,16.5
2018-06-25T05:29:21.782Z,16.5
2018-06-25T05:30:22.448Z,16.7
2018-06-25T05:31:23.112Z,16.7
2018-06-25T05:32:23.777Z,16.8
2018-06-25T05:33:24.445Z,16.8
2018-06-25T05:34:25.144Z,16.7
2018-06-25T05:35:25.809Z,16.7
2018-06-25T05:36:26.477Z,16.6
2018-06-25T05:37:27.143Z,16.6
2018-06-25T05:38:27.810Z,16.4
2018-06-25T05:39:28.476Z,16.5
2018-06-25T05:40:29.140Z,16.6
2018-06-25T05:41:29.805Z,16.6
2018-06-25T05:42:30.469Z,16.7
2018-06-25T05:43:31.133Z,16.7
2018-06-25T05:44:31.798Z,16.8
2018-06-25T05:45:32.463Z,16.8
2018-06-25T05:46:33.129Z,16.8
2018-06-25T05:47:33.794Z,16.9
2018-06-25T05:48:34.457Z,17.0
2018-06-25T05:49:35.123Z,17.1
2018-06-25T05:50:35.790Z,17.1
2018-06-25T05:51:36.456Z,17.2
2018-06-25T05:52:37.122Z,17.2
2018-06-25T05:53:37.789Z,17.2
2018-06-25T05:54:38.456Z,17.3
2018-06-25T05:55:39.121Z,17.3
2018-06-25T05:56:39.784Z,17.4
2018-06-25T05:57:40.451Z,17.4
2018-06-25T05:58:41.114Z,17.6
2018-06-25T05:59:41.779Z,17.6
2018-06-25T06:00:42.444Z,17.6
2018-06-25T06:01:43.111Z,17.7
2018-06-25T06:02:43.776Z,17.7
2018-06-25T06:03:44.441Z,17.8
2018-06-25T06:04:45.108Z,17.8
2018-06-25T06:05:45.809Z,17.9
2018-06-25T06:06:46.475Z,17.9
2018-06-25T06:07:47.140Z,17.9
2018-06-25T06:08:47.807Z,17.9
2018-06-25T06:09:48.472Z,17.8
2018-06-25T06:10:49.137Z,17.8
2018-06-25T06:11:49.804Z,17.9
2018-06-25T06:12:50.468Z,17.9
2018-06-25T06:13:51.155Z,17.9
2018-06-25T06:14:51.806Z,18.0
2018-06-25T06:15:52.472Z,18.0
2018-06-25T06:16:53.139Z,18.1
2018-06-25T06:17:53.803Z,18.2
2018-06-25T06:18:54.468Z,18.3
2018-06-25T06:19:55.184Z,18.3
2018-06-25T06:20:55.851Z,18.3
2018-06-25T06:21:56.517Z,18.2
2018-06-25T06:22:57.225Z,18.1
2018-06-25T06:23:57.893Z,18.0
2018-06-25T06:24:58.557Z,18.2
2018-06-25T06:25:59.222Z,18.3
2018-06-25T06:26:59.889Z,18.4
2018-06-25T06:28:00.552Z,18.5
2018-06-25T06:29:01.221Z,18.6
2018-06-25T06:30:01.887Z,18.6
2018-06-25T06:31:02.554Z,18.7
2018-06-25T06:32:03.226Z,18.7
2018-06-25T06:33:03.886Z,18.7
2018-06-25T06:34:04.552Z,18.8
2018-06-25T06:35:05.218Z,18.8
2018-06-25T06:36:05.886Z,18.8
2018-06-25T06:37:06.556Z,19.0
2018-06-25T06:38:07.223Z,19.3
2018-06-25T06:39:07.892Z,19.4
2018-06-25T06:40:08.659Z,19.5
2018-06-25T06:41:09.267Z,19.7
2018-06-25T06:42:09.935Z,20.0
2018-06-25T06:43:10.601Z,20.2
2018-06-25T06:44:11.306Z,20.3
2018-06-25T06:45:11.977Z,20.4
2018-06-25T06:46:12.644Z,20.5
2018-06-25T06:47:13.313Z,20.7
2018-06-25T06:48:13.981Z,20.8
2018-06-25T06:49:14.649Z,20.7
2018-06-25T06:50:15.321Z,20.8
2018-06-25T06:51:15.984Z,20.9
2018-06-25T06:52:16.654Z,21.1
2018-06-25T06:53:17.324Z,21.2
2018-06-25T06:54:18.033Z,21.4
2018-06-25T06:55:18.739Z,21.4
2018-06-25T06:56:19.407Z,21.4
2018-06-25T06:57:20.077Z,21.4
2018-06-25T06:58:20.745Z,21.4
2018-06-25T06:59:21.412Z,21.4
2018-06-25T07:00:22.120Z,21.4
2018-06-25T07:01:22.828Z,21.4
2018-06-25T07:02:23.498Z,21.5
2018-06-25T07:03:24.163Z,21.5
2018-06-25T07:04:24.833Z,21.4
2018-06-25T07:05:25.503Z,21.3
2018-06-25T07:06:26.173Z,21.1
2018-06-25T07:07:26.842Z,21.1
2018-06-25T07:08:27.509Z,21.1
2018-06-25T07:09:28.177Z,21.0
2018-06-25T07:10:28.847Z,21.0
2018-06-25T07:11:29.512Z,21.0
2018-06-25T07:12:30.179Z,21.0
2018-06-25T07:13:30.848Z,20.9
2018-06-25T07:14:31.515Z,20.8
2018-06-25T07:15:32.183Z,20.6
2018-06-25T07:16:32.858Z,20.5
2018-06-25T07:17:33.562Z,20.3
2018-06-25T07:18:34.232Z,20.3
2018-06-25T07:19:34.902Z,20.3
2018-06-25T07:20:35.577Z,20.4
2018-06-25T07:21:36.243Z,20.3
2018-06-25T07:22:36.948Z,20.4
2018-06-25T07:23:37.614Z,20.4
2018-06-25T07:24:38.285Z,20.1
2018-06-25T07:25:38.953Z,20.1
2018-06-25T07:26:39.624Z,20.3
2018-06-25T07:27:40.295Z,20.4
2018-06-25T07:28:40.961Z,20.7
2018-06-25T07:29:41.632Z,21.7
2018-06-25T07:30:42.350Z,23.0
2018-06-25T07:31:43.047Z,23.9
2018-06-25T07:32:43.718Z,24.9
2018-06-25T07:33:44.390Z,25.8
2018-06-25T07:34:45.060Z,26.2
2018-06-25T07:35:45.731Z,26.6
2018-06-25T07:36:46.402Z,26.7
2018-06-25T07:37:47.114Z,26.4
2018-06-25T07:38:47.817Z,26.2
2018-06-25T07:39:48.488Z,25.9
2018-06-25T07:40:49.158Z,25.7
2018-06-25T07:41:49.832Z,25.6
2018-06-25T07:42:50.503Z,25.3
2018-06-25T07:43:51.175Z,25.1
2018-06-25T07:44:52.669Z,24.8
2018-06-25T07:45:53.352Z,24.4
2018-06-25T07:46:54.038Z,24.2
2018-06-25T07:47:54.760Z,24.3
2018-06-25T07:48:55.446Z,24.1
2018-06-25T07:49:56.128Z,24.1
2018-06-25T07:50:56.811Z,24.0
2018-06-25T07:51:57.495Z,23.9
2018-06-25T07:52:58.177Z,23.9
2018-06-25T07:53:58.859Z,23.8
2018-06-25T07:54:59.541Z,23.7
2018-06-25T07:56:00.225Z,23.9
2018-06-25T07:57:00.907Z,23.8
2018-06-25T07:58:01.589Z,23.9
2018-06-25T07:59:02.270Z,23.9
2018-06-25T08:00:02.954Z,24.1
2018-06-25T08:01:03.674Z,23.9
2018-06-25T08:02:04.357Z,23.8
2018-06-25T08:03:05.144Z,23.8
2018-06-25T08:04:05.789Z,23.9
2018-06-25T08:05:06.469Z,24.0
2018-06-25T08:06:07.152Z,24.3
2018-06-25T08:07:07.834Z,24.4
2018-06-25T08:08:08.520Z,24.2
2018-06-25T08:09:09.236Z,23.8
2018-06-25T08:10:09.961Z,23.5
2018-06-25T08:11:10.602Z,23.7
2018-06-25T08:12:11.321Z,24.0
2018-06-25T08:13:12.004Z,24.3
2018-06-25T08:14:12.684Z,24.7
2018-06-25T08:15:13.368Z,25.1
2018-06-25T08:16:14.139Z,25.3
2018-06-25T08:17:14.768Z,25.7
2018-06-25T08:18:15.453Z,26.0
2018-06-25T08:19:16.134Z,26.0
2018-06-25T08:20:16.883Z,26.2
2018-06-25T08:21:17.536Z,26.3
2018-06-25T08:22:18.217Z,26.2
2018-06-25T08:23:18.900Z,26.9
2018-06-25T08:24:19.582Z,27.7
2018-06-25T08:25:20.265Z,27.7
2018-06-25T08:26:20.946Z,27.9
2018-06-25T08:27:21.630Z,28.4
2018-06-25T08:28:22.312Z,28.7
2018-06-25T08:29:22.997Z,29.2
2018-06-25T08:30:23.679Z,29.8
2018-06-25T08:31:24.362Z,30.4
2018-06-25T08:32:25.044Z,30.7
2018-06-25T08:33:25.727Z,30.9
2018-06-25T08:34:26.538Z,30.8
2018-06-25T08:35:27.094Z,31.0
2018-06-25T08:36:27.779Z,31.4
2018-06-25T08:37:28.462Z,31.8
2018-06-25T08:38:29.147Z,32.5
2018-06-25T08:39:29.831Z,33.0
2018-06-25T08:40:30.516Z,33.4
2018-06-25T08:41:31.200Z,33.9
2018-06-25T08:42:31.887Z,34.2
2018-06-25T08:43:32.571Z,34.6
2018-06-25T08:44:33.257Z,34.4
2018-06-25T08:45:33.943Z,34.3
2018-06-25T08:46:34.629Z,33.7
2018-06-25T08:47:35.317Z,33.3
2018-06-25T08:48:35.999Z,32.8
2018-06-25T08:49:36.683Z,32.2
2018-06-25T08:50:37.368Z,31.1
2018-06-25T08:51:38.063Z,30.0
2018-06-25T08:52:38.735Z,29.2
2018-06-25T08:53:39.419Z,28.6
2018-06-25T08:54:40.103Z,28.0
2018-06-25T08:55:40.796Z,27.6
2018-06-25T08:56:41.473Z,27.0
2018-06-25T08:57:42.193Z,26.7
2018-06-25T08:58:42.877Z,26.5
2018-06-25T08:59:43.561Z,26.5
2018-06-25T09:00:44.245Z,26.2
2018-06-25T09:01:44.976Z,26.1
2018-06-25T09:02:45.658Z,26.0
2018-06-25T09:03:46.342Z,25.7
2018-06-25T09:04:47.024Z,25.7
2018-06-25T09:05:47.709Z,25.7
2018-06-25T09:06:48.392Z,25.5
2018-06-25T09:07:49.072Z,25.7
2018-06-25T09:08:49.756Z,25.9
2018-06-25T09:09:50.475Z,26.3
2018-06-25T09:10:51.120Z,26.7
2018-06-25T09:11:51.840Z,26.8
2018-06-25T09:12:52.559Z,27.4
2018-06-25T09:13:53.240Z,27.9
2018-06-25T09:14:53.962Z,28.2
2018-06-25T09:15:54.644Z,28.2
2018-06-25T09:16:55.328Z,28.0
2018-06-25T09:17:56.014Z,27.3
2018-06-25T09:18:56.689Z,27.1
2018-06-25T09:19:57.373Z,26.7
2018-06-25T09:20:58.058Z,26.5
2018-06-25T09:21:58.748Z,26.3
2018-06-25T09:22:59.422Z,26.2
2018-06-25T09:24:00.107Z,26.2
2018-06-25T09:25:00.789Z,26.2
2018-06-25T09:26:01.477Z,26.5
2018-06-25T09:27:02.156Z,26.4
2018-06-25T09:28:02.841Z,26.7
2018-06-25T09:29:03.521Z,26.8
2018-06-25T09:30:04.205Z,27.2
2018-06-25T09:31:04.887Z,27.8
2018-06-25T09:32:05.573Z,28.2
2018-06-25T09:33:06.254Z,28.8
2018-06-25T09:34:06.937Z,29.3
2018-06-25T09:35:07.625Z,29.4
2018-06-25T09:36:08.304Z,29.9
2018-06-25T09:37:08.985Z,30.1
2018-06-25T09:38:09.669Z,30.3
2018-06-25T09:39:10.351Z,30.3
2018-06-25T09:40:11.034Z,30.3
2018-06-25T09:41:11.798Z,30.4
2018-06-25T09:42:12.401Z,30.2
2018-06-25T09:43:13.091Z,29.7
2018-06-25T09:44:13.774Z,29.2
2018-06-25T09:45:14.493Z,28.9
2018-06-25T09:46:15.139Z,28.6
2018-06-25T09:47:15.823Z,27.9
2018-06-25T09:48:16.504Z,27.2
2018-06-25T09:49:17.189Z,26.4
2018-06-25T09:50:17.876Z,25.7
2018-06-25T09:51:18.555Z,25.1
2018-06-25T09:52:19.237Z,24.7
2018-06-25T09:53:19.920Z,24.5
2018-06-25T09:54:20.603Z,24.2
2018-06-25T09:55:21.285Z,24.2
2018-06-25T09:56:21.970Z,24.1
2018-06-25T09:57:22.689Z,23.7
2018-06-25T09:58:23.370Z,23.5
2018-06-25T09:59:24.054Z,23.5
2018-06-25T10:00:24.736Z,23.4
2018-06-25T10:01:25.458Z,23.5
2018-06-25T10:02:26.138Z,23.7
2018-06-25T10:03:26.925Z,23.6
2018-06-25T10:04:27.538Z,23.7
2018-06-25T10:05:28.223Z,23.7
2018-06-25T10:06:28.901Z,23.8
2018-06-25T10:07:29.630Z,23.6
2018-06-25T10:08:30.313Z,23.3
2018-06-25T10:09:30.993Z,23.3
2018-06-25T10:10:31.740Z,23.4
2018-06-25T10:11:32.363Z,23.5
2018-06-25T10:12:33.039Z,23.7
2018-06-25T10:13:33.723Z,23.9
2018-06-25T10:14:34.445Z,24.0
2018-06-25T10:15:35.123Z,24.3
2018-06-25T10:16:35.841Z,24.2
2018-06-25T10:17:36.529Z,24.2
2018-06-25T10:18:37.212Z,24.3
2018-06-25T10:19:37.891Z,24.2
2018-06-25T10:20:38.574Z,24.3
2018-06-25T10:21:39.257Z,24.3
2018-06-25T10:22:39.937Z,24.2
2018-06-25T10:23:40.618Z,24.2
2018-06-25T10:24:41.299Z,24.1
2018-06-25T10:25:41.979Z,23.9
2018-06-25T10:26:42.659Z,23.8
2018-06-25T10:27:43.339Z,23.8
2018-06-25T10:28:44.020Z,23.8
2018-06-25T10:29:44.699Z,23.9
2018-06-25T10:30:45.380Z,24.0
2018-06-25T10:31:46.062Z,24.0
2018-06-25T10:32:46.744Z,24.2
2018-06-25T10:33:47.425Z,24.2
2018-06-25T10:34:48.160Z,24.3
2018-06-25T10:35:48.816Z,24.2
2018-06-25T10:36:49.497Z,24.1
2018-06-25T10:37:50.177Z,24.0
2018-06-25T10:38:50.858Z,23.8
2018-06-25T10:39:51.537Z,23.6
2018-06-25T10:40:52.216Z,23.4
2018-06-25T10:41:52.898Z,23.3
2018-06-25T10:42:53.577Z,23.4
2018-06-25T10:43:54.257Z,23.4
2018-06-25T10:44:54.936Z,23.4
2018-06-25T10:45:55.656Z,23.5
2018-06-25T10:46:56.335Z,23.4
2018-06-25T10:47:57.014Z,23.3
2018-06-25T10:48:57.696Z,23.4
2018-06-25T10:49:58.375Z,23.5
2018-06-25T10:50:59.053Z,23.6
2018-06-25T10:51:59.734Z,23.7
2018-06-25T10:53:00.415Z,23.5
2018-06-25T10:54:01.096Z,23.4
2018-06-25T10:55:01.774Z,23.5
2018-06-25T10:56:02.491Z,23.6
2018-06-25T10:57:03.173Z,23.8
2018-06-25T10:58:03.859Z,23.8
2018-06-25T10:59:04.539Z,23.8
2018-06-25T11:00:05.564Z,23.7
2018-06-25T11:01:05.975Z,23.5
2018-06-25T11:02:06.619Z,23.3
2018-06-25T11:03:07.335Z,23.1
2018-06-25T11:04:08.021Z,23.0
2018-06-25T11:05:08.696Z,23.1
2018-06-25T11:06:09.375Z,23.0
2018-06-25T11:07:10.139Z,23.0
2018-06-25T11:08:10.736Z,23.1
2018-06-25T11:09:11.413Z,23.0
2018-06-25T11:10:12.091Z,23.0
2018-06-25T11:11:12.770Z,22.8
2018-06-25T11:12:13.454Z,22.8
2018-06-25T11:13:14.135Z,22.9
2018-06-25T11:14:14.821Z,22.9
2018-06-25T11:15:15.535Z,23.1
2018-06-25T11:16:16.251Z,23.1
2018-06-25T11:17:16.969Z,23.2
2018-06-25T11:18:17.646Z,23.4
2018-06-25T11:19:18.355Z,23.5
2018-06-25T11:20:19.046Z,23.5
2018-06-25T11:21:19.762Z,23.4
2018-06-25T11:22:20.440Z,23.4
2018-06-25T11:23:21.121Z,23.5
2018-06-25T11:24:21.804Z,23.4
2018-06-25T11:25:22.479Z,23.4
2018-06-25T11:26:23.157Z,23.4
2018-06-25T11:27:23.875Z,23.4
2018-06-25T11:28:24.517Z,23.3
2018-06-25T11:29:25.195Z,23.3
2018-06-25T11:30:25.879Z,23.2
2018-06-25T11:31:26.606Z,23.2
2018-06-25T11:32:27.411Z,23.1
2018-06-25T11:33:28.096Z,23.1
2018-06-25T11:34:28.864Z,23.2
2018-06-25T11:35:29.533Z,23.1
2018-06-25T11:36:30.193Z,23.1
2018-06-25T11:37:30.899Z,23.2
2018-06-25T11:38:31.639Z,23.4
2018-06-25T11:39:32.440Z,23.4
2018-06-25T11:40:33.105Z,23.5
2018-06-25T11:41:33.924Z,23.7
2018-06-25T11:42:34.645Z,23.9
2018-06-25T11:43:35.376Z,23.8
2018-06-25T11:44:36.054Z,24.0
2018-06-25T11:45:36.834Z,24.0
2018-06-25T11:46:37.525Z,24.0
2018-06-25T11:47:38.203Z,24.0
2018-06-25T11:48:38.883Z,24.1
2018-06-25T11:49:39.564Z,24.1
2018-06-25T11:50:40.244Z,24.0
2018-06-25T11:51:40.964Z,23.8
2018-06-25T11:52:41.603Z,23.8
2018-06-25T11:53:42.333Z,23.7
2018-06-25T11:54:43.012Z,23.7
2018-06-25T11:55:43.729Z,23.8
2018-06-25T11:56:44.408Z,23.8
2018-06-25T11:57:45.088Z,23.8
2018-06-25T11:58:45.765Z,23.8
2018-06-25T11:59:46.447Z,23.9
2018-06-25T12:00:47.149Z,24.0
2018-06-25T12:01:47.839Z,24.1
2018-06-25T12:02:48.560Z,24.1
2018-06-25T12:03:49.201Z,24.1
2018-06-25T12:04:49.882Z,24.3
2018-06-25T12:05:50.561Z,24.2
2018-06-25T12:06:51.240Z,24.2
2018-06-25T12:07:51.926Z,24.2
2018-06-25T12:08:52.597Z,24.1
2018-06-25T12:09:53.278Z,24.0
2018-06-25T12:10:53.958Z,23.9
2018-06-25T12:11:54.637Z,24.0
2018-06-25T12:12:55.316Z,24.1
2018-06-25T12:13:55.995Z,24.1
2018-06-25T12:14:56.675Z,24.3
2018-06-25T12:15:57.355Z,24.3
2018-06-25T12:16:58.035Z,24.5
2018-06-25T12:17:58.713Z,24.5
2018-06-25T12:18:59.412Z,24.6
2018-06-25T12:20:00.127Z,24.6
2018-06-25T12:21:00.753Z,24.3
2018-06-25T12:22:01.435Z,23.9
2018-06-25T12:23:02.118Z,23.8
2018-06-25T12:24:02.796Z,23.8
2018-06-25T12:25:03.478Z,23.9
2018-06-25T12:26:04.155Z,23.8
2018-06-25T12:27:04.832Z,23.9
2018-06-25T12:28:05.512Z,24.0
2018-06-25T12:29:06.193Z,24.1
2018-06-25T12:30:06.936Z,24.1
2018-06-25T12:31:07.552Z,24.1
2018-06-25T12:32:08.300Z,24.1
2018-06-25T12:33:08.912Z,24.2
2018-06-25T12:34:09.593Z,24.1
2018-06-25T12:35:10.280Z,24.1
2018-06-25T12:36:10.952Z,23.8
2018-06-25T12:37:11.635Z,23.9
2018-06-25T12:38:12.311Z,23.9
2018-06-25T12:39:12.995Z,23.8
2018-06-25T12:40:13.674Z,23.6
2018-06-25T12:41:14.350Z,23.8
2018-06-25T12:42:15.029Z,23.8
2018-06-25T12:43:15.809Z,23.7
2018-06-25T12:44:16.427Z,23.8
2018-06-25T12:45:17.106Z,24.0
2018-06-25T12:46:17.787Z,24.1
2018-06-25T12:47:18.466Z,24.3
2018-06-25T12:48:19.197Z,24.4
2018-06-25T12:49:19.825Z,24.4
2018-06-25T12:50:20.506Z,24.3
2018-06-25T12:51:21.184Z,24.3
2018-06-25T12:52:21.864Z,24.4
2018-06-25T12:53:22.545Z,24.5
2018-06-25T12:54:23.227Z,24.5
2018-06-25T12:55:23.910Z,24.6
2018-06-25T12:56:24.585Z,24.6
2018-06-25T12:57:25.266Z,24.5
2018-06-25T12:58:25.945Z,24.4
2018-06-25T12:59:26.625Z,24.3
2018-06-25T13:00:27.306Z,24.4
2018-06-25T13:01:27.998Z,24.5
2018-06-25T13:02:28.668Z,24.5
2018-06-25T13:03:29.347Z,24.6
2018-06-25T13:04:30.028Z,24.6
2018-06-25T13:05:30.710Z,24.6
2018-06-25T13:06:31.387Z,24.5
2018-06-25T13:07:32.105Z,24.3
2018-06-25T13:08:32.787Z,24.3
2018-06-25T13:09:33.504Z,24.1
2018-06-25T13:10:34.185Z,23.9
2018-06-25T13:11:34.866Z,23.8
2018-06-25T13:12:35.547Z,23.7
2018-06-25T13:13:36.226Z,23.7
2018-06-25T13:14:36.907Z,23.7
2018-06-25T13:15:37.589Z,23.7
2018-06-25T13:16:38.264Z,23.9
2018-06-25T13:17:38.944Z,23.9
2018-06-25T13:18:39.624Z,23.8
2018-06-25T13:19:40.308Z,23.8
2018-06-25T13:20:41.039Z,23.7
2018-06-25T13:21:41.665Z,23.9
2018-06-25T13:22:42.343Z,23.9
2018-06-25T13:23:43.022Z,24.0
2018-06-25T13:24:43.703Z,24.2
2018-06-25T13:25:44.597Z,24.1
2018-06-25T13:26:45.064Z,24.0
2018-06-25T13:27:45.745Z,24.1